createdAt,value
2022-08-14T00:01:10.055Z,27.07
2022-08-14T00:03:37.398Z,27.03
2022-08-14T00:06:25.321Z,27.04
2022-08-14T00:08:51.229Z,27.04
2022-08-14T00:11:19.569Z,27.03
2022-08-14T00:13:52.427Z,27.01
2022-08-14T00:16:41.154Z,26.99
2022-08-14T00:19:18.790Z,26.87
2022-08-14T00:21:47.480Z,26.88
2022-08-14T00:24:23.238Z,26.76
2022-08-14T00:26:57.590Z,26.76
2022-08-14T00:29:33.176Z,26.74
2022-08-14T00:32:50.525Z,26.62
2022-08-14T00:34:54.641Z,26.50
2022-08-14T00:37:23.411Z,26.39
2022-08-14T00:39:49.985Z,26.30
2022-08-14T00:42:52.569Z,26.40
2022-08-14T00:45:10.078Z,26.32
2022-08-14T00:47:45.026Z,26.39
2022-08-14T00:50:18.078Z,26.27
2022-08-14T00:52:52.058Z,26.20
2022-08-14T00:55:20.813Z,26.24
2022-08-14T00:57:48.778Z,25.91
2022-08-14T01:00:26.723Z,25.31
2022-08-14T01:03:06.076Z,24.72
2022-08-14T01:05:50.990Z,24.63
2022-08-14T01:08:52.066Z,24.55
2022-08-14T01:11:12.600Z,24.60
2022-08-14T01:13:46.258Z,24.82
2022-08-14T01:16:22.482Z,24.82
2022-08-14T01:19:01.041Z,24.78
2022-08-14T01:21:34.819Z,24.44
2022-08-14T01:24:09.884Z,24.61
2022-08-14T01:26:38.749Z,24.98
2022-08-14T01:29:06.300Z,25.14
2022-08-14T01:31:37.186Z,25.25
2022-08-14T01:35:18.855Z,25.43
2022-08-14T01:36:54.804Z,25.43
2022-08-14T01:39:22.234Z,25.55
2022-08-14T01:41:50.115Z,25.55
2022-08-14T01:44:33.446Z,25.69
2022-08-14T01:47:05.819Z,25.54
2022-08-14T01:49:33.456Z,25.56
2022-08-14T01:52:02.137Z,25.67
2022-08-14T01:54:38.072Z,25.72
2022-08-14T01:57:05.939Z,25.73
2022-08-14T01:59:37.794Z,25.74
2022-08-14T02:02:09.980Z,25.75
2022-08-14T02:04:57.101Z,25.77
2022-08-14T02:07:34.348Z,25.79
2022-08-14T02:10:15.594Z,25.70
2022-08-14T02:12:45.641Z,25.66
2022-08-14T02:15:20.948Z,25.75
2022-08-14T02:17:49.847Z,25.75
2022-08-14T02:20:16.710Z,25.69
2022-08-14T02:22:47.727Z,25.60
2022-08-14T02:25:15.052Z,25.64
2022-08-14T02:28:24.615Z,25.62
2022-08-14T02:30:31.501Z,25.55
2022-08-14T02:32:58.075Z,25.49
2022-08-14T02:35:25.691Z,25.46
2022-08-14T02:37:59.345Z,25.49
2022-08-14T02:40:32.522Z,25.47
2022-08-14T02:43:02.474Z,25.42
2022-08-14T02:45:33.403Z,25.43
2022-08-14T02:48:07.000Z,25.43
2022-08-14T02:50:37.160Z,25.36
2022-08-14T02:53:06.164Z,25.37
2022-08-14T02:55:36.667Z,25.30
2022-08-14T02:58:03.873Z,25.26
2022-08-14T03:00:34.973Z,25.23
2022-08-14T03:03:07.942Z,25.23
2022-08-14T03:05:36.933Z,25.13
2022-08-14T03:08:12.003Z,25.04
2022-08-14T03:10:48.916Z,24.95
2022-08-14T03:13:19.320Z,24.96
2022-08-14T03:15:46.835Z,25.02
2022-08-14T03:18:14.210Z,25.07
2022-08-14T03:20:45.078Z,25.07
2022-08-14T03:23:13.030Z,25.01
2022-08-14T03:25:39.681Z,24.96
2022-08-14T03:28:14.583Z,24.99
2022-08-14T03:30:59.786Z,24.81
2022-08-14T03:33:26.651Z,24.92
2022-08-14T03:36:05.610Z,24.99
2022-08-14T03:39:13.130Z,24.99
2022-08-14T03:41:33.182Z,24.78
2022-08-14T03:45:20.036Z,24.94
2022-08-14T03:46:54.899Z,24.88
2022-08-14T03:49:29.338Z,24.90
2022-08-14T03:52:00.477Z,24.71
2022-08-14T03:54:28.852Z,24.78
2022-08-14T03:56:55.377Z,24.75
2022-08-14T03:59:22.546Z,24.68
2022-08-14T04:01:58.121Z,24.69
2022-08-14T04:04:33.600Z,24.72
2022-08-14T04:07:01.195Z,24.72
2022-08-14T04:09:28.519Z,24.76
2022-08-14T04:11:55.961Z,24.67
2022-08-14T04:14:42.856Z,24.75
2022-08-14T04:17:12.212Z,24.68
2022-08-14T04:19:39.704Z,24.64
2022-08-14T04:22:07.919Z,24.50
2022-08-14T04:24:38.552Z,24.51
2022-08-14T04:27:10.932Z,24.43
2022-08-14T04:29:39.881Z,24.23
2022-08-14T04:32:59.959Z,24.20
2022-08-14T04:34:55.864Z,24.14
2022-08-14T04:37:25.462Z,24.10
2022-08-14T04:39:57.348Z,24.08
2022-08-14T04:42:24.918Z,24.19
2022-08-14T04:44:52.330Z,24.16
2022-08-14T04:47:27.398Z,24.02
2022-08-14T04:49:57.878Z,23.75
2022-08-14T04:52:25.321Z,24.00
2022-08-14T04:54:52.199Z,23.70
2022-08-14T04:57:21.103Z,23.50
2022-08-14T04:59:49.753Z,23.44
2022-08-14T05:02:17.635Z,23.51
2022-08-14T05:04:56.676Z,23.46
2022-08-14T05:07:46.257Z,23.77
2022-08-14T05:10:12.791Z,23.72
2022-08-14T05:13:12.718Z,24.22
2022-08-14T05:15:26.704Z,24.50
2022-08-14T05:17:58.602Z,24.77
2022-08-14T05:21:04.170Z,24.98
2022-08-14T05:23:21.755Z,25.24
2022-08-14T05:25:54.567Z,25.25
2022-08-14T05:28:24.691Z,25.38
2022-08-14T05:30:59.476Z,25.50
2022-08-14T05:33:30.918Z,25.62
2022-08-14T05:36:00.395Z,25.77
2022-08-14T05:38:31.907Z,25.82
2022-08-14T05:41:08.848Z,25.84
2022-08-14T05:43:41.116Z,26.05
2022-08-14T05:46:12.486Z,26.16
2022-08-14T05:48:43.367Z,26.25
2022-08-14T05:51:10.333Z,26.32
2022-08-14T05:53:36.868Z,26.42
2022-08-14T05:56:09.184Z,26.53
2022-08-14T05:58:41.078Z,26.65
2022-08-14T06:01:09.088Z,26.77
2022-08-14T06:03:36.854Z,26.86
2022-08-14T06:06:07.108Z,26.91
2022-08-14T06:08:36.467Z,26.99
2022-08-14T06:11:09.488Z,26.88
2022-08-14T06:13:44.987Z,26.91
2022-08-14T06:16:17.669Z,27.06
2022-08-14T06:18:52.998Z,27.17
2022-08-14T06:21:22.901Z,27.17
2022-08-14T06:23:49.682Z,27.29
2022-08-14T06:26:20.618Z,27.37
2022-08-14T06:28:52.460Z,27.27
2022-08-14T06:31:20.479Z,27.31
2022-08-14T06:35:11.701Z,27.38
2022-08-14T06:36:33.664Z,27.09
2022-08-14T06:39:00.226Z,27.23
2022-08-14T06:41:58.707Z,27.23
2022-08-14T06:44:15.089Z,27.13
2022-08-14T06:46:42.539Z,27.05
2022-08-14T06:49:15.989Z,26.91
2022-08-14T06:51:44.837Z,26.56
2022-08-14T06:54:11.995Z,26.12
2022-08-14T06:56:38.747Z,26.15
2022-08-14T06:59:10.653Z,25.83
2022-08-14T07:01:46.500Z,26.04
2022-08-14T07:04:22.516Z,25.90
2022-08-14T07:06:50.056Z,26.14
2022-08-14T07:09:22.683Z,26.08
2022-08-14T07:11:50.952Z,26.42
2022-08-14T07:14:17.949Z,26.49
2022-08-14T07:16:44.534Z,26.55
2022-08-14T07:19:11.182Z,26.64
2022-08-14T07:21:37.824Z,26.71
2022-08-14T07:24:04.543Z,26.84
2022-08-14T07:26:31.179Z,26.80
2022-08-14T07:28:57.700Z,26.44
2022-08-14T07:31:24.188Z,26.65
2022-08-14T07:33:51.110Z,26.51
2022-08-14T07:36:27.651Z,26.43
2022-08-14T07:38:59.201Z,26.44
2022-08-14T07:41:33.735Z,26.44
2022-08-14T07:44:28.696Z,26.55
2022-08-14T07:46:48.414Z,26.54
2022-08-14T07:49:17.808Z,26.65
2022-08-14T07:51:45.754Z,26.71
2022-08-14T07:54:16.768Z,26.74
2022-08-14T07:56:53.912Z,26.78
2022-08-14T07:59:40.597Z,26.69
2022-08-14T08:02:19.414Z,26.70
2022-08-14T08:04:50.734Z,26.79
2022-08-14T08:07:22.793Z,26.40
2022-08-14T08:09:55.636Z,25.62
2022-08-14T08:12:29.770Z,25.53
2022-08-14T08:15:03.195Z,25.81
2022-08-14T08:17:39.049Z,25.24
2022-08-14T08:20:15.998Z,24.64
2022-08-14T08:22:47.949Z,24.42
2022-08-14T08:25:17.969Z,24.23
2022-08-14T08:28:01.488Z,24.63
2022-08-14T08:30:49.277Z,24.37
2022-08-14T08:33:17.875Z,24.70
2022-08-14T08:35:50.703Z,24.49
2022-08-14T08:39:15.408Z,24.27
2022-08-14T08:41:12.408Z,24.51
2022-08-14T08:43:46.145Z,24.57
2022-08-14T08:46:21.708Z,24.45
2022-08-14T08:51:33.459Z,24.44
2022-08-14T08:54:18.466Z,24.27
2022-08-14T08:56:50.105Z,24.35
2022-08-14T08:59:31.638Z,24.38
2022-08-14T09:02:10.239Z,24.06
2022-08-14T09:04:45.530Z,23.77
2022-08-14T09:07:25.924Z,24.05
2022-08-14T09:09:58.622Z,23.99
2022-08-14T09:12:32.431Z,24.29
2022-08-14T09:15:11.754Z,24.33
2022-08-14T09:17:41.565Z,24.20
2022-08-14T09:20:11.666Z,24.23
2022-08-14T09:22:42.401Z,24.08
2022-08-14T09:25:11.971Z,24.14
2022-08-14T09:27:41.701Z,24.25
2022-08-14T09:30:13.175Z,24.26
2022-08-14T09:33:10.924Z,24.44
2022-08-14T09:35:59.879Z,24.23
2022-08-14T09:38:55.129Z,24.13
2022-08-14T09:42:21.076Z,24.02
2022-08-14T09:45:08.792Z,24.22
2022-08-14T09:47:51.797Z,24.32
2022-08-14T09:50:26.022Z,24.23
2022-08-14T09:53:03.810Z,24.32
2022-08-14T09:55:41.337Z,24.20
2022-08-14T09:58:19.767Z,24.18
2022-08-14T10:00:50.381Z,24.14
2022-08-14T10:03:33.281Z,24.21
2022-08-14T10:06:10.378Z,24.38
2022-08-14T10:09:03.063Z,24.44
2022-08-14T10:11:35.578Z,24.47
2022-08-14T10:14:21.105Z,24.27
2022-08-14T10:17:02.427Z,24.25
2022-08-14T10:19:31.455Z,24.50
2022-08-14T10:23:12.581Z,24.16
2022-08-14T10:24:55.023Z,24.35
2022-08-14T10:27:24.910Z,24.34
2022-08-14T10:29:58.873Z,24.34
2022-08-14T10:32:36.388Z,24.23
2022-08-14T10:35:14.386Z,24.18
2022-08-14T10:37:52.180Z,24.27
2022-08-14T10:40:43.655Z,24.34
2022-08-14T10:43:22.893Z,23.95
2022-08-14T10:46:03.267Z,23.98
2022-08-14T10:48:59.676Z,23.79
2022-08-14T10:51:30.195Z,23.97
2022-08-14T10:54:35.152Z,23.83
2022-08-14T10:56:53.912Z,23.60
2022-08-14T10:59:20.577Z,23.11
2022-08-14T11:01:47.141Z,22.99
2022-08-14T11:04:25.866Z,22.96
2022-08-14T11:06:56.183Z,22.13
2022-08-14T11:09:22.919Z,22.69
2022-08-14T11:11:56.339Z,22.67
2022-08-14T11:14:42.522Z,22.70
2022-08-14T11:17:09.781Z,22.38
2022-08-14T11:19:38.425Z,22.69
2022-08-14T11:24:51.018Z,23.08
2022-08-14T11:27:33.066Z,23.43
2022-08-14T11:30:50.160Z,23.79
2022-08-14T11:32:53.394Z,24.14
2022-08-14T11:35:24.475Z,23.75
2022-08-14T11:38:05.831Z,23.64
2022-08-14T11:40:36.443Z,24.26
2022-08-14T11:43:06.386Z,24.49
2022-08-14T11:45:40.161Z,24.81
2022-08-14T11:49:02.525Z,25.20
2022-08-14T11:51:16.428Z,25.31
2022-08-14T11:53:50.310Z,25.40
2022-08-14T11:56:17.595Z,25.24
2022-08-14T11:58:51.892Z,25.68
2022-08-14T12:01:29.538Z,25.32
2022-08-14T12:04:31.728Z,25.37
2022-08-14T12:06:56.758Z,25.69
2022-08-14T12:09:35.244Z,26.08
2022-08-14T12:12:35.669Z,26.25
2022-08-14T12:15:04.893Z,26.15
2022-08-14T12:17:49.382Z,26.20
2022-08-14T12:20:30.070Z,26.46
2022-08-14T12:23:00.679Z,26.71
2022-08-14T12:25:28.954Z,26.86
2022-08-14T12:28:01.187Z,27.18
2022-08-14T12:30:38.035Z,27.27
2022-08-14T12:33:31.086Z,27.32
2022-08-14T12:36:05.464Z,26.71
2022-08-14T12:38:38.675Z,27.00
2022-08-14T12:41:20.572Z,26.88
2022-08-14T12:43:52.782Z,26.85
2022-08-14T12:46:30.620Z,27.03
2022-08-14T12:49:02.394Z,26.75
2022-08-14T12:51:30.712Z,26.88
2022-08-14T12:54:00.048Z,27.02
2022-08-14T12:56:32.931Z,26.93
2022-08-14T12:59:00.085Z,26.91
2022-08-14T13:01:31.239Z,26.95
2022-08-14T13:04:08.057Z,26.99
2022-08-14T13:06:39.113Z,27.11
2022-08-14T13:09:11.098Z,26.91
2022-08-14T13:11:48.592Z,27.06
2022-08-14T13:14:29.997Z,27.06
2022-08-14T13:16:58.768Z,27.03
2022-08-14T13:19:26.792Z,26.88
2022-08-14T13:22:05.936Z,27.02
2022-08-14T13:24:38.547Z,27.08
2022-08-14T13:27:06.633Z,27.00
2022-08-14T13:29:40.676Z,26.53
2022-08-14T13:32:10.824Z,26.23
2022-08-14T13:34:38.077Z,26.08
2022-08-14T13:37:05.878Z,26.05
2022-08-14T13:39:36.492Z,26.11
2022-08-14T13:42:08.312Z,25.42
2022-08-14T13:44:35.841Z,25.68
2022-08-14T13:47:03.866Z,24.78
2022-08-14T13:49:30.468Z,25.02
2022-08-14T13:52:02.822Z,24.91
2022-08-14T13:54:33.778Z,25.02
2022-08-14T13:57:01.645Z,25.06
2022-08-14T13:59:37.405Z,25.25
2022-08-14T14:02:08.176Z,25.50
2022-08-14T14:04:40.596Z,25.66
2022-08-14T14:07:10.491Z,25.65
2022-08-14T14:09:50.981Z,25.67
2022-08-14T14:12:37.637Z,25.83
2022-08-14T14:15:12.770Z,25.58
2022-08-14T14:17:43.954Z,25.67
2022-08-14T14:20:34.294Z,25.56
2022-08-14T14:23:03.495Z,25.80
2022-08-14T14:25:46.049Z,25.85
2022-08-14T14:28:17.002Z,26.16
2022-08-14T14:30:54.665Z,26.49
2022-08-14T14:33:47.134Z,26.49
2022-08-14T14:36:20.846Z,26.58
2022-08-14T14:38:55.734Z,26.42
2022-08-14T14:41:37.586Z,26.34
2022-08-14T14:44:09.167Z,26.63
2022-08-14T14:46:41.622Z,26.63
2022-08-14T14:49:11.742Z,26.76
2022-08-14T14:51:43.466Z,26.65
2022-08-14T14:54:13.043Z,26.64
2022-08-14T14:56:51.945Z,26.29
2022-08-14T14:59:20.581Z,26.58
2022-08-14T15:01:58.591Z,26.56
2022-08-14T15:04:25.534Z,26.51
2022-08-14T15:06:53.285Z,26.66
2022-08-14T15:09:20.621Z,26.92
2022-08-14T15:11:50.302Z,26.81
2022-08-14T15:14:55.415Z,26.51
2022-08-14T15:17:03.916Z,26.75
2022-08-14T15:19:31.056Z,26.85
2022-08-14T15:21:57.899Z,27.44
2022-08-14T15:24:27.007Z,27.65
2022-08-14T15:26:54.350Z,27.45
2022-08-14T15:29:20.873Z,27.81
2022-08-14T15:31:47.376Z,28.12
2022-08-14T15:34:44.144Z,28.16
2022-08-14T15:37:01.098Z,28.29
2022-08-14T15:39:29.671Z,28.36
2022-08-14T15:42:02.665Z,28.52
2022-08-14T15:44:34.407Z,28.50
2022-08-14T15:47:04.163Z,28.42
2022-08-14T15:49:34.673Z,28.52
2022-08-14T15:52:01.724Z,28.62
2022-08-14T15:54:31.637Z,28.57
2022-08-14T15:56:59.347Z,28.71
2022-08-14T15:59:26.477Z,28.48
2022-08-14T16:01:55.091Z,28.63
2022-08-14T16:04:22.130Z,28.76
2022-08-14T16:06:54.850Z,29.00
2022-08-14T16:09:22.979Z,28.71
2022-08-14T16:11:53.431Z,28.82
2022-08-14T16:14:21.697Z,29.30
2022-08-14T16:16:51.762Z,29.61
2022-08-14T16:19:29.286Z,30.48
2022-08-14T16:22:57.418Z,30.71
2022-08-14T16:25:00.358Z,30.88
2022-08-14T16:27:37.892Z,31.14
2022-08-14T16:30:11.264Z,30.52
2022-08-14T16:32:55.310Z,30.68
2022-08-14T16:35:26.505Z,30.60
2022-08-14T16:38:19.721Z,31.12
2022-08-14T16:41:06.440Z,31.57
2022-08-14T16:43:33.609Z,32.09
2022-08-14T16:46:00.836Z,32.46
2022-08-14T16:48:55.460Z,32.58
2022-08-14T16:51:14.975Z,33.13
2022-08-14T16:53:41.825Z,33.46
2022-08-14T16:56:23.198Z,33.62
2022-08-14T16:59:12.236Z,33.27
2022-08-14T17:01:56.578Z,33.14
2022-08-14T17:04:27.058Z,32.80
2022-08-14T17:06:55.657Z,32.28
2022-08-14T17:09:34.640Z,31.62
2022-08-14T17:12:07.179Z,31.19
2022-08-14T17:14:52.573Z,30.96
2022-08-14T17:17:24.772Z,30.58
2022-08-14T17:20:00.542Z,30.70
2022-08-14T17:22:50.986Z,30.44
2022-08-14T17:25:23.826Z,30.24
2022-08-14T17:28:50.039Z,29.95
2022-08-14T17:31:03.093Z,29.83
2022-08-14T17:33:40.739Z,29.75
2022-08-14T17:36:24.082Z,29.10
2022-08-14T17:38:59.941Z,29.15
2022-08-14T17:41:36.036Z,29.05
2022-08-14T17:44:13.926Z,29.04
2022-08-14T17:46:55.277Z,28.93
2022-08-14T17:49:26.605Z,28.85
2022-08-14T17:52:00.506Z,28.83
2022-08-14T17:54:34.891Z,28.80
2022-08-14T17:57:14.082Z,28.69
2022-08-14T17:59:44.439Z,28.68
2022-08-14T18:02:16.639Z,28.55
2022-08-14T18:04:45.164Z,28.48
2022-08-14T18:08:00.450Z,28.45
2022-08-14T18:10:52.705Z,28.35
2022-08-14T18:12:55.835Z,28.37
2022-08-14T18:15:24.282Z,28.33
2022-08-14T18:18:06.482Z,28.12
2022-08-14T18:21:40.115Z,28.08
2022-08-14T18:23:21.908Z,27.98
2022-08-14T18:25:52.478Z,27.92
2022-08-14T18:28:50.822Z,27.89
2022-08-14T18:31:22.949Z,27.71
2022-08-14T18:34:31.203Z,27.60
2022-08-14T18:37:13.917Z,27.26
2022-08-14T18:40:01.016Z,27.10
2022-08-14T18:42:32.898Z,26.89
2022-08-14T18:45:01.376Z,26.48
2022-08-14T18:48:03.364Z,26.32
2022-08-14T18:50:27.346Z,25.90
2022-08-14T18:53:07.152Z,25.51
2022-08-14T18:55:33.717Z,25.32
2022-08-14T18:58:00.462Z,25.09
2022-08-14T19:00:32.996Z,24.74
2022-08-14T19:03:01.441Z,24.37
2022-08-14T19:05:37.374Z,24.18
2022-08-14T19:08:22.146Z,24.04
2022-08-14T19:10:55.611Z,24.20
2022-08-14T19:13:48.595Z,24.40
2022-08-14T19:16:22.979Z,24.34
2022-08-14T19:19:00.118Z,24.32
2022-08-14T19:21:36.937Z,24.13
2022-08-14T19:24:27.375Z,23.80
2022-08-14T19:27:16.489Z,23.52
2022-08-14T19:29:43.628Z,23.52
2022-08-14T19:32:32.352Z,24.01
2022-08-14T19:35:16.679Z,23.92
2022-08-14T19:37:47.635Z,24.08
2022-08-14T19:40:33.891Z,23.91
2022-08-14T19:43:03.018Z,24.16
2022-08-14T19:45:33.879Z,24.36
2022-08-14T19:48:02.293Z,24.14
2022-08-14T19:50:40.556Z,23.99
2022-08-14T19:53:17.050Z,23.95
2022-08-14T19:55:58.583Z,24.09
2022-08-14T19:58:54.468Z,24.35
2022-08-14T20:01:36.403Z,24.35
2022-08-14T20:04:08.405Z,24.23
2022-08-14T20:06:55.037Z,23.24
2022-08-14T20:11:11.417Z,22.83
2022-08-14T20:12:28.302Z,22.93
2022-08-14T20:15:09.836Z,23.36
2022-08-14T20:17:40.748Z,23.60
2022-08-14T20:20:20.944Z,23.88
2022-08-14T20:23:11.567Z,24.09
2022-08-14T20:25:57.212Z,24.36
2022-08-14T20:28:30.935Z,24.50
2022-08-14T20:31:15.737Z,24.44
2022-08-14T20:34:06.136Z,24.61
2022-08-14T20:36:40.095Z,24.75
2022-08-14T20:39:15.312Z,24.72
2022-08-14T20:41:44.907Z,24.52
2022-08-14T20:44:28.587Z,24.57
2022-08-14T20:46:59.127Z,24.67
2022-08-14T20:49:29.355Z,24.46
2022-08-14T20:51:59.319Z,24.08
2022-08-14T20:54:34.693Z,23.71
2022-08-14T20:57:13.958Z,23.12
2022-08-14T20:59:44.150Z,22.81
2022-08-14T21:02:34.613Z,23.12
2022-08-14T21:05:16.340Z,23.35
2022-08-14T21:07:50.327Z,23.07
2022-08-14T21:10:33.909Z,23.16
2022-08-14T21:13:25.590Z,22.89
2022-08-14T21:15:57.745Z,23.36
2022-08-14T21:18:31.995Z,23.52
2022-08-14T21:21:04.627Z,23.71
2022-08-14T21:23:54.233Z,23.82
2022-08-14T21:26:50.568Z,23.89
2022-08-14T21:29:13.932Z,23.98
2022-08-14T21:31:41.557Z,23.91
2022-08-14T21:34:31.703Z,24.07
2022-08-14T21:36:56.275Z,23.80
2022-08-14T21:39:24.357Z,23.91
2022-08-14T21:41:58.890Z,23.97
2022-08-14T21:44:34.373Z,24.09
2022-08-14T21:47:13.223Z,24.05
2022-08-14T21:49:46.257Z,24.11
2022-08-14T21:52:51.653Z,24.18
2022-08-14T21:55:09.446Z,24.06
2022-08-14T21:57:55.695Z,24.20
2022-08-14T22:00:34.860Z,24.26
2022-08-14T22:03:05.235Z,24.21
2022-08-14T22:05:31.869Z,24.23
2022-08-14T22:07:58.471Z,24.19
2022-08-14T22:10:25.286Z,24.23
2022-08-14T22:13:00.367Z,24.21
2022-08-14T22:15:29.738Z,24.20
2022-08-14T22:17:58.453Z,24.18
2022-08-14T22:20:26.809Z,24.17
2022-08-14T22:22:56.184Z,24.13
2022-08-14T22:25:33.926Z,23.99
2022-08-14T22:28:01.536Z,24.03
2022-08-14T22:30:28.046Z,24.07
2022-08-14T22:32:57.317Z,24.12
2022-08-14T22:35:25.583Z,24.14
2022-08-14T22:38:33.672Z,24.15
2022-08-14T22:40:56.685Z,24.16
2022-08-14T22:43:31.349Z,24.14
2022-08-14T22:46:02.508Z,24.13
2022-08-14T22:48:29.718Z,24.19
2022-08-14T22:50:56.527Z,24.18
2022-08-14T22:53:29.500Z,24.00
2022-08-14T22:55:56.711Z,24.07
2022-08-14T22:58:31.768Z,24.17
2022-08-14T23:01:10.176Z,24.18
2022-08-14T23:03:39.947Z,24.19
2022-08-14T23:07:03.212Z,24.28
2022-08-14T23:09:02.177Z,24.05
2022-08-14T23:11:46.943Z,24.14
2022-08-14T23:14:24.104Z,23.85
2022-08-14T23:16:57.238Z,23.87
2022-08-14T23:19:33.690Z,23.96
2022-08-14T23:22:03.919Z,23.71
2022-08-14T23:24:30.834Z,23.85
2022-08-14T23:26:57.498Z,23.89
2022-08-14T23:29:24.122Z,23.64
2022-08-14T23:31:51.978Z,23.82
2022-08-14T23:34:21.474Z,23.76
2022-08-14T23:36:55.684Z,23.62
2022-08-14T23:39:30.861Z,23.83
2022-08-14T23:42:04.491Z,23.86
2022-08-14T23:44:35.171Z,23.83
2022-08-14T23:47:10.755Z,23.81
2022-08-14T23:50:00.637Z,24.04
2022-08-14T23:52:50.150Z,24.04
2022-08-14T23:55:12.649Z,24.12
2022-08-14T23:57:43.823Z,23.78
